Terminal Aerodrome Forecast
Issued by NWS

Home | Current Version | Previous Version | Text Only | Print | Product List | Glossary On
Versions: 1 2 3 4 5 6 7 8 9 10 11 12 13 14 15 16
000
FTUS41 KBTV 300520
TAFMSS
TAF
KMSS 300520Z 3006/3106 19011KT P6SM SCT050 OVC070
     FM301200 20014G24KT 5SM -SHRASN OVC050
     FM301300 21016G26KT 6SM -SHRA OVC035
     FM310000 26014G24KT 3SM -SHRASN BR OVC025
     FM310200 27012G20KT P6SM OVC035=

USA.gov is the U.S. government's official web portal to all federal, state and local government web resources and services.